Time;durP1;ratioP1;P1;durP2;ratioP2;P2;SDS_P1;SDS_P2;PMS_P1;PMS_P2;Temp;Humidity;BMP_temperature;BMP_pressure;BME280_temperature;BME280_humidity;BME280_pressure;Samples;Min_cycle;Max_cycle;Signal;HPM_P1;HPM_P2
2021/11/29 00:02:13;;;;;;;21.88;12.02;;;;;;;1.22;84.59;99925.34;5090759;28;20056;-69
2021/11/29 00:04:39;;;;;;;26.40;12.82;;;;;;;1.30;84.17;99926.47;5107713;28;20047;-68
2021/11/29 00:07:06;;;;;;;24.25;11.98;;;;;;;1.15;83.81;99925.81;5107930;28;20403;-68
2021/11/29 00:09:34;;;;;;;28.75;11.80;;;;;;;1.18;83.72;99937.81;5107992;28;20044;-68
2021/11/29 00:12:00;;;;;;;22.80;11.80;;;;;;;1.11;84.14;99944.44;5074507;28;20040;-68
2021/11/29 00:14:27;;;;;;;24.95;11.32;;;;;;;1.05;84.01;99945.72;5082349;28;20040;-68
2021/11/29 00:16:54;;;;;;;21.98;11.82;;;;;;;1.19;83.35;99947.34;5095599;28;20447;-68
2021/11/29 00:19:21;;;;;;;21.38;11.32;;;;;;;1.27;83.07;99950.19;5093585;28;20043;-68
2021/11/29 00:21:48;;;;;;;24.83;11.35;;;;;;;1.34;83.51;99958.44;5094520;28;20550;-68
2021/11/29 00:24:15;;;;;;;24.42;12.27;;;;;;;1.27;83.53;99954.59;5095337;28;20039;-68
2021/11/29 00:26:42;;;;;;;22.55;10.85;;;;;;;1.17;83.66;99959.69;5094599;28;20032;-68
2021/11/29 00:29:08;;;;;;;24.33;11.98;;;;;;;1.20;84.39;99959.47;5097182;28;20035;-68
2021/11/29 00:31:35;;;;;;;23.60;12.13;;;;;;;1.27;83.88;99963.25;5101412;28;20404;-68
2021/11/29 00:34:02;;;;;;;23.73;11.50;;;;;;;1.40;82.73;99962.34;5076135;28;20173;-68
2021/11/29 00:36:29;;;;;;;17.75;10.38;;;;;;;1.47;81.39;99968.81;5094175;28;20090;-68
2021/11/29 00:38:56;;;;;;;23.60;10.90;;;;;;;1.54;80.92;99967.41;5095342;28;20131;-68
2021/11/29 00:41:23;;;;;;;19.75;10.85;;;;;;;1.58;81.34;99971.44;5093673;28;20043;-68
2021/11/29 00:43:50;;;;;;;21.02;10.23;;;;;;;1.47;81.32;99976.63;5094419;28;20044;-68
2021/11/29 00:46:16;;;;;;;20.60;10.70;;;;;;;1.36;82.71;99979.22;5093628;28;20447;-68
2021/11/29 00:48:44;;;;;;;21.17;10.55;;;;;;;1.27;82.36;99976.31;5094557;28;20064;-68
2021/11/29 00:51:11;;;;;;;18.27;9.52;;;;;;;1.28;82.54;99977.19;5093475;28;20035;-68
2021/11/29 00:53:38;;;;;;;20.10;10.15;;;;;;;1.55;81.29;99974.31;5076988;28;20040;-68
2021/11/29 00:56:05;;;;;;;20.02;9.90;;;;;;;1.53;80.59;99973.59;5076688;28;20488;-68
2021/11/29 00:58:32;;;;;;;20.45;10.45;;;;;;;1.43;81.31;99981.25;5093591;28;20068;-68
2021/11/29 01:00:59;;;;;;;20.42;10.35;;;;;;;1.37;81.70;99980.91;5098903;28;20117;-68
2021/11/29 01:03:26;;;;;;;24.98;10.23;;;;;;;1.39;81.37;99979.81;5113640;28;20400;-68
2021/11/29 01:05:52;;;;;;;21.38;10.05;;;;;;;1.34;81.10;99988.00;5114385;28;20051;-68
2021/11/29 01:08:19;;;;;;;22.77;10.18;;;;;;;1.41;81.17;99980.53;5097299;28;20045;-68
2021/11/29 01:10:46;;;;;;;20.48;10.10;;;;;;;1.57;80.24;99987.25;5114532;28;20070;-68
2021/11/29 01:13:12;;;;;;;24.13;9.65;;;;;;;1.52;80.34;99992.81;5115123;28;20550;-68
2021/11/29 01:15:39;;;;;;;21.13;10.02;;;;;;;1.35;80.51;99996.69;5114576;28;20039;-68
2021/11/29 01:18:09;;;;;;;26.08;10.40;;;;;;;1.36;80.11;100000.94;5097104;28;20044;-68
2021/11/29 01:20:38;;;;;;;24.40;10.02;;;;;;;1.31;80.46;100003.06;5114552;28;20404;-68
2021/11/29 01:23:05;;;;;;;25.27;10.35;;;;;;;1.19;80.64;100004.81;5096496;28;20051;-68
2021/11/29 01:25:32;;;;;;;23.98;9.95;;;;;;;1.31;80.30;100001.31;5095550;27;20553;-67
2021/11/29 01:27:59;;;;;;;26.52;10.27;;;;;;;1.17;80.46;100009.31;5115205;27;20059;-68
2021/11/29 01:30:25;;;;;;;27.25;9.98;;;;;;;1.19;80.51;100010.03;5097027;28;20039;-68
2021/11/29 01:32:52;;;;;;;34.00;11.18;;;;;;;1.30;79.83;100009.25;5102545;28;20039;-68
2021/11/29 01:35:19;;;;;;;29.55;10.25;;;;;;;1.20;80.35;100005.63;5104208;27;20047;-68
2021/11/29 01:37:46;;;;;;;29.73;11.82;;;;;;;1.22;80.68;100016.81;5095114;28;20044;-68
2021/11/29 01:40:13;;;;;;;25.33;11.07;;;;;;;1.12;81.34;100008.81;5096549;28;20500;-68
2021/11/29 01:43:02;;;;;;;23.02;11.18;;;;;;;0.97;81.04;100015.97;5079350;28;20043;-68
2021/11/29 01:45:31;;;;;;;29.30;10.80;;;;;;;0.91;81.37;100013.78;5096276;28;20553;-68
2021/11/29 01:47:58;;;;;;;25.75;10.88;;;;;;;1.05;82.00;100021.47;5095608;28;20043;-68
2021/11/29 01:50:26;;;;;;;20.77;10.80;;;;;;;1.13;81.37;100020.94;5114006;28;20081;-68
2021/11/29 01:52:53;;;;;;;25.40;10.90;;;;;;;1.15;80.13;100032.94;5113859;28;20400;-68
2021/11/29 01:55:21;;;;;;;25.95;11.45;;;;;;;0.89;81.20;100021.75;5095779;28;20174;-68
2021/11/29 01:57:48;;;;;;;24.80;12.00;;;;;;;0.89;81.64;100033.97;5095106;28;20560;-68
2021/11/29 02:00:22;;;;;;;24.67;13.02;;;;;;;1.11;80.95;100030.66;5111767;27;20039;-68
2021/11/29 02:02:50;;;;;;;27.77;12.68;;;;;;;0.97;81.56;100038.66;5091597;28;20036;-67
2021/11/29 02:05:19;;;;;;;24.25;13.70;;;;;;;0.88;81.61;100040.16;5090691;28;20040;-68
2021/11/29 02:07:46;;;;;;;23.05;13.07;;;;;;;0.97;81.31;100044.72;5102720;28;20059;-68
2021/11/29 02:10:15;;;;;;;25.80;12.57;;;;;;;1.04;80.79;100039.91;5088090;28;20040;-68
2021/11/29 02:12:42;;;;;;;27.13;13.43;;;;;;;0.96;80.81;100032.59;5093176;28;20139;-68
2021/11/29 02:15:12;;;;;;;31.65;13.85;;;;;;;0.98;81.24;100040.31;5074842;28;20058;-68
2021/11/29 02:17:40;;;;;;;25.65;12.75;;;;;;;0.94;81.33;100048.38;5072053;28;20036;-68
2021/11/29 02:20:09;;;;;;;26.75;12.23;;;;;;;0.76;81.72;100047.91;5089343;28;20101;-68
2021/11/29 02:22:36;;;;;;;25.70;11.80;;;;;;;0.90;81.78;100054.75;5093233;28;20036;-68
2021/11/29 02:25:04;;;;;;;21.08;10.55;;;;;;;0.94;82.34;100048.38;5104012;28;20040;-68
2021/11/29 02:27:30;;;;;;;19.92;9.13;;;;;;;0.97;81.18;100055.16;5096397;28;20044;-68
2021/11/29 02:29:57;;;;;;;22.33;9.10;;;;;;;0.84;81.92;100064.81;5092027;28;20051;-68
2021/11/29 02:32:24;;;;;;;17.17;9.45;;;;;;;0.83;82.36;100055.31;5082582;28;20040;-68
2021/11/29 02:34:51;;;;;;;27.98;10.75;;;;;;;0.86;82.01;100058.53;5091831;28;20040;-68
2021/11/29 02:37:18;;;;;;;24.70;9.15;;;;;;;0.89;81.79;100055.72;5091321;28;20082;-68
2021/11/29 02:39:45;;;;;;;24.58;7.82;;;;;;;0.92;81.93;100054.66;5090324;28;20447;-67
2021/11/29 02:42:13;;;;;;;13.38;7.95;;;;;;;0.95;81.64;100054.44;5090307;28;20469;-68
2021/11/29 02:44:41;;;;;;;17.48;8.63;;;;;;;0.89;82.11;100060.94;5092765;28;20638;-68
2021/11/29 02:47:08;;;;;;;20.23;8.50;;;;;;;0.77;82.96;100051.34;5092720;28;20040;-68
2021/11/29 02:49:35;;;;;;;19.67;8.50;;;;;;;0.81;82.42;100054.59;5091637;28;20039;-68
2021/11/29 02:52:08;;;;;;;14.70;7.53;;;;;;;0.86;82.34;100039.44;5074400;28;20127;-68
2021/11/29 02:54:39;;;;;;;21.02;8.50;;;;;;;0.94;82.00;100052.75;5091063;28;21449;-67
2021/11/29 02:57:09;;;;;;;15.52;7.82;;;;;;;1.02;81.41;100045.22;5075278;28;20040;-68
2021/11/29 02:59:39;;;;;;;18.60;8.07;;;;;;;0.86;81.89;100049.88;5090260;28;20040;-68
2021/11/29 03:02:09;;;;;;;16.30;8.20;;;;;;;0.95;81.80;100052.66;5091678;28;20455;-68
2021/11/29 03:04:38;;;;;;;22.35;8.40;;;;;;;0.99;81.88;100055.88;5091837;28;20497;-68
2021/11/29 03:07:05;;;;;;;19.75;7.25;;;;;;;0.81;82.46;100054.59;5090524;28;20040;-68
2021/11/29 03:09:33;;;;;;;19.13;7.68;;;;;;;0.83;82.49;100052.69;5090988;28;20044;-68
2021/11/29 03:12:00;;;;;;;20.17;7.68;;;;;;;0.89;82.35;100054.84;5074547;28;20070;-67
2021/11/29 03:14:27;;;;;;;20.70;7.60;;;;;;;0.89;82.64;100058.31;5091309;28;20059;-67
2021/11/29 03:16:55;;;;;;;16.05;7.75;;;;;;;1.11;81.78;100055.00;5091815;28;20044;-67
2021/11/29 03:19:28;;;;;;;20.33;8.70;;;;;;;0.92;82.12;100060.69;5092496;28;20036;-67
2021/11/29 03:21:55;;;;;;;15.88;7.25;;;;;;;1.00;81.75;100059.31;5090266;28;20584;-67
2021/11/29 03:24:21;;;;;;;20.33;7.97;;;;;;;0.92;82.69;100063.31;5074554;28;20044;-67
2021/11/29 03:26:48;;;;;;;16.27;7.47;;;;;;;1.03;82.09;100066.94;5092559;28;20404;-67
2021/11/29 03:29:17;;;;;;;15.50;7.60;;;;;;;0.94;82.37;100071.88;5090744;28;20440;-68
2021/11/29 03:31:44;;;;;;;16.05;7.93;;;;;;;0.90;82.02;100078.25;5090926;28;20059;-67
2021/11/29 03:34:14;;;;;;;16.25;7.18;;;;;;;0.89;82.64;100083.59;5089526;28;20047;-67
2021/11/29 03:36:43;;;;;;;16.52;7.28;;;;;;;1.02;81.90;100081.78;5090348;28;20048;-67
2021/11/29 03:39:13;;;;;;;13.95;7.07;;;;;;;0.83;82.70;100076.19;5090879;28;20105;-67
2021/11/29 03:41:41;;;;;;;20.17;7.35;;;;;;;0.91;82.74;100081.69;5095502;28;20043;-68
2021/11/29 03:44:08;;;;;;;18.15;7.10;;;;;;;0.98;82.54;100082.09;5077113;28;20051;-67
2021/11/29 03:46:35;;;;;;;18.25;7.60;;;;;;;1.01;82.58;100084.50;5092662;28;20044;-67
2021/11/29 03:49:02;;;;;;;19.10;7.47;;;;;;;0.87;82.27;100088.91;5093847;28;20090;-68
2021/11/29 03:51:29;;;;;;;14.82;7.72;;;;;;;0.93;82.11;100092.91;5094830;28;20048;-68
2021/11/29 03:53:56;;;;;;;20.40;7.43;;;;;;;0.97;82.09;100094.34;5094813;28;20032;-67
2021/11/29 03:56:23;;;;;;;19.50;7.55;;;;;;;0.89;82.54;100096.66;5075964;28;20123;-67
2021/11/29 03:58:50;;;;;;;13.20;6.50;;;;;;;0.82;82.86;100095.41;5094844;28;20040;-67
2021/11/29 04:01:17;;;;;;;15.27;6.97;;;;;;;0.76;82.90;100102.75;5097795;28;20059;-68
2021/11/29 04:03:44;;;;;;;16.17;7.25;;;;;;;0.76;82.84;100109.72;5078964;28;20031;-67
2021/11/29 04:06:10;;;;;;;14.55;6.72;;;;;;;0.82;82.84;100104.09;5115443;28;20500;-68
2021/11/29 04:08:37;;;;;;;15.63;6.55;;;;;;;0.76;83.05;100110.59;5098412;28;20430;-67
2021/11/29 04:11:05;;;;;;;12.95;6.35;;;;;;;0.87;82.43;100109.81;5116062;28;20043;-67
2021/11/29 04:13:34;;;;;;;16.65;6.50;;;;;;;0.91;82.92;100105.19;5096977;28;20303;-67
2021/11/29 04:16:01;;;;;;;14.40;6.32;;;;;;;0.89;82.93;100109.69;5115569;28;20042;-68
2021/11/29 04:18:28;;;;;;;19.98;6.25;;;;;;;1.03;82.49;100106.13;5079668;28;20044;-68
2021/11/29 04:20:56;;;;;;;15.48;6.45;;;;;;;1.04;82.69;100111.25;5105391;28;20042;-67
2021/11/29 04:23:23;;;;;;;16.02;6.80;;;;;;;1.17;82.18;100111.22;5115005;28;20093;-67
2021/11/29 04:25:56;;;;;;;13.23;6.32;;;;;;;1.10;82.36;100108.19;5110209;28;20119;-67
2021/11/29 04:28:23;;;;;;;12.82;6.35;;;;;;;1.12;82.92;100118.53;5077820;28;20127;-67
2021/11/29 04:30:50;;;;;;;16.20;6.65;;;;;;;1.18;82.80;100118.09;5104984;28;20073;-67
2021/11/29 04:33:17;;;;;;;13.70;6.40;;;;;;;1.37;82.37;100116.81;5078744;28;20040;-67
2021/11/29 04:35:44;;;;;;;13.75;6.10;;;;;;;1.23;83.21;100117.78;5115015;28;20515;-67
2021/11/29 04:38:11;;;;;;;13.15;6.05;;;;;;;1.24;82.99;100115.06;5095496;28;20067;-67
2021/11/29 04:40:38;;;;;;;15.82;6.65;;;;;;;1.26;82.62;100117.56;5115866;28;20039;-67
2021/11/29 04:43:06;;;;;;;15.07;6.65;;;;;;;1.22;83.49;100121.31;5080077;28;20411;-67
2021/11/29 04:45:33;;;;;;;14.50;7.18;;;;;;;1.18;83.59;100125.94;5097149;28;20043;-68
2021/11/29 04:48:00;;;;;;;14.98;5.90;;;;;;;1.11;83.64;100133.38;5115324;28;20114;-67
2021/11/29 04:50:27;;;;;;;13.65;5.85;;;;;;;1.20;83.09;100131.91;5080586;28;20043;-68
2021/11/29 04:52:54;;;;;;;14.60;5.93;;;;;;;1.13;83.13;100139.34;5114930;28;20514;-67
2021/11/29 04:55:21;;;;;;;14.43;5.50;;;;;;;1.09;83.59;100150.09;5115441;28;20040;-67
2021/11/29 04:57:47;;;;;;;13.38;5.60;;;;;;;1.05;84.65;100148.66;5096651;28;20130;-68
2021/11/29 05:00:18;;;;;;;13.55;5.50;;;;;;;1.25;83.20;100147.25;5115073;28;20115;-67
2021/11/29 05:02:46;;;;;;;16.77;5.90;;;;;;;1.14;82.93;100161.06;5114666;27;20047;-68
2021/11/29 05:05:14;;;;;;;14.02;5.90;;;;;;;1.28;82.78;100149.66;5113373;28;20040;-68
2021/11/29 05:07:41;;;;;;;19.02;5.78;;;;;;;1.33;82.58;100158.84;5096756;28;20063;-67
2021/11/29 05:10:09;;;;;;;17.65;5.40;;;;;;;1.19;82.93;100152.91;5114917;28;20046;-67
2021/11/29 05:12:36;;;;;;;14.90;6.30;;;;;;;1.11;82.62;100151.69;5096506;28;20126;-67
2021/11/29 05:15:05;;;;;;;13.00;6.00;;;;;;;1.04;83.48;100154.84;5096356;28;20039;-67
2021/11/29 05:17:32;;;;;;;16.90;6.13;;;;;;;0.99;83.85;100155.13;5096885;28;20074;-67
2021/11/29 05:19:59;;;;;;;12.88;5.70;;;;;;;1.00;83.05;100156.81;5114666;28;20427;-67
2021/11/29 05:22:26;;;;;;;12.88;5.82;;;;;;;1.07;83.55;100172.88;5080009;27;20032;-67
2021/11/29 05:24:53;;;;;;;15.43;6.22;;;;;;;1.02;83.28;100172.38;5078486;27;20032;-68
2021/11/29 05:27:20;;;;;;;13.60;5.88;;;;;;;0.86;83.62;100172.63;5076584;27;20529;-68
2021/11/29 05:29:46;;;;;;;16.90;6.07;;;;;;;0.95;83.31;100166.75;5116276;27;20090;-68
2021/11/29 05:32:13;;;;;;;12.50;5.22;;;;;;;0.99;83.18;100170.00;5096123;28;20131;-67
2021/11/29 05:34:40;;;;;;;10.32;4.60;;;;;;;0.93;83.74;100166.03;5114152;28;20089;-68
2021/11/29 05:37:18;;;;;;;12.88;5.05;;;;;;;0.96;83.84;100173.63;5075264;28;20066;-67
2021/11/29 05:39:44;;;;;;;12.15;5.00;;;;;;;0.95;84.33;100178.03;5096255;27;20047;-67
2021/11/29 05:42:11;;;;;;;11.85;5.28;;;;;;;1.00;83.63;100177.72;5116907;27;20069;-67
2021/11/29 05:44:38;;;;;;;12.52;4.78;;;;;;;0.87;84.19;100182.09;5132291;27;20063;-68
2021/11/29 05:47:05;;;;;;;15.35;5.07;;;;;;;0.93;84.67;100189.53;5114483;28;20047;-67
2021/11/29 05:49:32;;;;;;;9.30;5.18;;;;;;;0.91;84.92;100188.78;5095885;28;20411;-67
2021/11/29 05:52:00;;;;;;;12.02;4.80;;;;;;;0.94;84.34;100181.56;5062353;28;20059;-67
2021/11/29 05:54:27;;;;;;;10.50;4.82;;;;;;;0.95;84.61;100196.31;5114101;27;20035;-67
2021/11/29 05:56:56;;;;;;;11.15;5.47;;;;;;;1.03;84.52;100210.63;5114136;28;20044;-67
2021/11/29 05:59:23;;;;;;;12.82;4.63;;;;;;;1.02;84.87;100207.19;5076887;28;20036;-67
2021/11/29 06:01:50;;;;;;;8.77;4.72;;;;;;;1.04;84.41;100210.53;5101738;27;20055;-67
2021/11/29 06:04:17;;;;;;;10.40;5.07;;;;;;;1.11;84.50;100210.91;5127323;27;20042;-67
2021/11/29 06:06:44;;;;;;;11.55;5.60;;;;;;;1.06;84.48;100211.25;5071060;28;20028;-67
2021/11/29 06:09:11;;;;;;;11.63;5.18;;;;;;;1.03;84.90;100219.28;5113596;28;20043;-67
2021/11/29 06:11:39;;;;;;;13.68;5.35;;;;;;;1.13;84.50;100220.34;5095085;28;20035;-67
2021/11/29 06:14:06;;;;;;;12.50;5.40;;;;;;;1.23;84.30;100224.91;5095424;28;20047;-68
2021/11/29 06:16:32;;;;;;;14.55;5.45;;;;;;;1.29;83.26;100224.47;5113576;28;20542;-68
2021/11/29 06:18:59;;;;;;;10.85;5.05;;;;;;;1.35;82.92;100218.84;5095093;28;20051;-68
2021/11/29 06:21:27;;;;;;;11.13;5.30;;;;;;;1.27;83.21;100218.53;5095147;28;20050;-67
2021/11/29 06:23:54;;;;;;;10.82;5.28;;;;;;;1.23;83.98;100222.31;5087552;28;20050;-67
2021/11/29 06:26:21;;;;;;;11.68;5.47;;;;;;;1.25;83.90;100217.81;5113155;28;20039;-67
2021/11/29 06:28:49;;;;;;;13.02;5.20;;;;;;;1.39;82.64;100214.22;5113537;28;20480;-67
2021/11/29 06:31:16;;;;;;;12.32;6.25;;;;;;;1.41;83.01;100217.56;5111366;28;20075;-67
2021/11/29 06:33:43;;;;;;;13.90;5.38;;;;;;;1.29;83.46;100217.50;5111603;28;20039;-67
2021/11/29 06:36:10;;;;;;;15.05;6.43;;;;;;;1.23;83.67;100223.13;5112821;28;20036;-68
2021/11/29 06:38:37;;;;;;;18.40;5.93;;;;;;;1.28;83.34;100228.88;5113474;28;20067;-67
2021/11/29 06:41:04;;;;;;;13.00;5.13;;;;;;;1.41;82.63;100228.03;5112581;28;20043;-67
2021/11/29 06:43:31;;;;;;;12.40;5.38;;;;;;;1.38;82.69;100225.63;5076223;28;20039;-67
2021/11/29 06:45:58;;;;;;;13.43;5.75;;;;;;;1.44;83.38;100227.81;5112542;28;20035;-68
2021/11/29 06:48:24;;;;;;;12.80;5.47;;;;;;;1.45;83.07;100230.31;5094807;28;20046;-68
2021/11/29 06:50:53;;;;;;;15.32;5.72;;;;;;;1.59;82.44;100236.34;5094540;28;20528;-67
2021/11/29 06:53:23;;;;;;;13.20;5.90;;;;;;;1.56;82.13;100234.78;5112808;28;20036;-67
2021/11/29 06:55:51;;;;;;;26.95;5.70;;;;;;;1.55;82.57;100238.34;5112192;28;20048;-68
2021/11/29 06:58:20;;;;;;;14.43;5.65;;;;;;;1.47;82.90;100232.81;5095180;28;20105;-67
2021/11/29 07:00:47;;;;;;;19.02;5.70;;;;;;;1.54;82.99;100244.50;5077871;28;20040;-68
2021/11/29 07:03:14;;;;;;;19.30;6.85;;;;;;;1.65;82.47;100241.97;5108162;28;20056;-68
2021/11/29 07:05:41;;;;;;;16.83;6.10;;;;;;;1.56;82.23;100253.06;5093919;28;20381;-67
2021/11/29 07:08:08;;;;;;;14.13;6.82;;;;;;;1.49;82.99;100244.00;5091707;28;20040;-68
2021/11/29 07:10:40;;;;;;;16.38;6.53;;;;;;;1.50;82.57;100253.53;5091808;28;20599;-67
2021/11/29 07:13:08;;;;;;;;;;;;;;;1.47;82.48;100245.88;5092112;28;20043;-67
2021/11/29 07:15:36;;;;;;;16.83;6.28;;;;;;;1.41;83.25;100254.16;5092358;28;19924;-67
2021/11/29 07:18:03;;;;;;;13.27;6.18;;;;;;;1.28;82.92;100255.00;5091583;28;20040;-68
2021/11/29 07:20:30;;;;;;;12.43;5.97;;;;;;;1.29;84.11;100250.63;5058426;28;20040;-67
2021/11/29 07:22:58;;;;;;;10.98;5.53;;;;;;;1.28;84.08;100248.97;5093123;28;20463;-67
2021/11/29 07:25:25;;;;;;;15.93;5.75;;;;;;;1.38;83.45;100249.16;5078593;28;20090;-67
2021/11/29 07:27:52;;;;;;;11.13;5.22;;;;;;;1.39;83.48;100259.50;5095534;28;20044;-67
2021/11/29 07:30:21;;;;;;;10.30;4.93;;;;;;;1.28;83.78;100268.06;5094963;28;20552;-67
2021/11/29 07:32:53;;;;;;;14.75;6.07;;;;;;;1.29;83.65;100275.00;5076674;28;20044;-68
2021/11/29 07:35:22;;;;;;;17.65;7.57;;;;;;;1.32;83.92;100274.75;5076011;28;20497;-67
2021/11/29 07:37:50;;;;;;;11.50;5.63;;;;;;;1.44;83.19;100286.16;5076445;28;20101;-67
2021/11/29 07:40:17;;;;;;;12.52;4.90;;;;;;;1.40;82.92;100284.72;5058416;28;20040;-68
2021/11/29 07:42:43;;;;;;;14.57;6.13;;;;;;;1.47;82.90;100279.88;5074935;28;20048;-68
2021/11/29 07:45:12;;;;;;;12.68;5.75;;;;;;;1.45;83.27;100277.34;5076123;28;20439;-68
2021/11/29 07:47:41;;;;;;;12.15;5.65;;;;;;;1.48;82.66;100286.78;5082626;28;20048;-67
2021/11/29 07:50:14;;;;;;;17.58;6.10;;;;;;;1.53;82.92;100295.97;5096160;28;20036;-67
2021/11/29 07:52:43;;;;;;;12.60;5.97;;;;;;;1.41;82.79;100290.75;5109519;28;20059;-67
2021/11/29 07:55:12;;;;;;;10.88;5.53;;;;;;;1.44;83.54;100296.63;5098399;28;20447;-66
2021/11/29 07:57:40;;;;;;;12.35;5.70;;;;;;;1.43;82.89;100300.16;5116562;28;20036;-67
2021/11/29 08:00:12;;;;;;;12.98;5.82;;;;;;;1.46;82.71;100309.59;5115616;28;20060;-67
2021/11/29 08:02:38;;;;;;;17.13;7.25;;;;;;;1.46;83.32;100301.75;5092255;28;20127;-67
2021/11/29 08:05:06;;;;;;;12.90;7.05;;;;;;;1.40;83.51;100300.38;5091531;28;20070;-67
2021/11/29 08:07:32;;;;;;;17.75;8.55;;;;;;;1.36;83.32;100300.69;5095331;28;20040;-67
2021/11/29 08:09:59;;;;;;;14.00;8.43;;;;;;;1.38;83.26;100309.25;5095778;28;20051;-67
2021/11/29 08:12:26;;;;;;;15.82;8.50;;;;;;;1.37;83.68;100312.84;5093261;28;20393;-64
2021/11/29 08:14:54;;;;;;;13.68;7.28;;;;;;;1.42;83.41;100316.81;5089446;28;20044;-64
2021/11/29 08:17:21;;;;;;;14.27;6.00;;;;;;;1.36;84.01;100311.16;5093057;28;20044;-71
2021/11/29 08:19:48;;;;;;;13.23;5.65;;;;;;;1.40;84.45;100317.81;5090352;28;20036;-71
2021/11/29 08:22:15;;;;;;;14.07;6.38;;;;;;;1.28;83.82;100322.13;5078197;28;20058;-67
2021/11/29 08:24:41;;;;;;;11.20;5.90;;;;;;;1.32;83.57;100320.97;5091528;28;20040;-67
2021/11/29 08:27:08;;;;;;;13.98;5.70;;;;;;;1.34;84.05;100321.69;5076221;28;20048;-67
2021/11/29 08:29:35;;;;;;;11.80;5.82;;;;;;;1.38;83.19;100317.94;5083905;28;20044;-67
2021/11/29 08:32:03;;;;;;;15.90;6.20;;;;;;;1.45;83.48;100329.63;5057224;28;20048;-67
2021/11/29 08:34:30;;;;;;;16.85;6.10;;;;;;;1.45;83.40;100344.50;5079240;28;20524;-69
2021/11/29 08:36:57;;;;;;;16.52;6.28;;;;;;;1.60;82.87;100334.75;5091445;28;20039;-67
2021/11/29 08:39:23;;;;;;;12.35;6.53;;;;;;;1.54;83.53;100336.00;5086257;28;20473;-68
2021/11/29 08:41:50;;;;;;;17.27;6.20;;;;;;;1.51;82.87;100334.47;5092876;28;20480;-68
2021/11/29 08:44:17;;;;;;;13.57;6.78;;;;;;;1.60;82.76;100332.13;5082367;28;20032;-68
2021/11/29 08:46:51;;;;;;;12.93;5.43;;;;;;;1.63;83.22;100335.38;5085949;28;20050;-68
2021/11/29 08:49:20;;;;;;;12.35;6.20;;;;;;;1.88;82.47;100339.75;5086604;28;20059;-68
2021/11/29 08:51:47;;;;;;;12.73;6.30;;;;;;;1.90;82.11;100345.69;5088076;28;20044;-68
2021/11/29 08:54:15;;;;;;;15.65;6.95;;;;;;;1.92;81.98;100349.03;5084852;28;20037;-67
2021/11/29 08:56:42;;;;;;;16.15;6.90;;;;;;;1.88;81.81;100344.97;5070604;28;20127;-69
2021/11/29 08:59:09;;;;;;;15.52;6.50;;;;;;;1.95;81.72;100344.53;5086445;28;20408;-68
2021/11/29 09:01:36;;;;;;;13.20;6.40;;;;;;;1.86;81.55;100343.41;5086855;28;20052;-68
2021/11/29 09:04:03;;;;;;;15.57;6.40;;;;;;;1.96;81.64;100354.06;5076103;28;20507;-67
2021/11/29 09:06:30;;;;;;;14.65;6.10;;;;;;;1.88;81.94;100350.19;5070773;28;20036;-68
2021/11/29 09:08:57;;;;;;;12.10;5.30;;;;;;;1.69;82.99;100358.50;5089772;28;20452;-69
2021/11/29 09:11:24;;;;;;;12.23;6.20;;;;;;;1.77;82.58;100354.53;5088340;28;20808;-67
2021/11/29 09:13:51;;;;;;;11.60;6.10;;;;;;;1.75;83.19;100352.00;5087217;28;20126;-68
2021/11/29 09:16:18;;;;;;;13.38;5.45;;;;;;;1.81;82.90;100350.75;5081861;28;20040;-67
2021/11/29 09:18:46;;;;;;;14.27;6.65;;;;;;;1.83;82.52;100354.91;5090202;28;20131;-67
2021/11/29 09:21:16;;;;;;;13.48;6.13;;;;;;;1.85;82.68;100368.72;5092050;28;20044;-68
2021/11/29 09:23:44;;;;;;;13.90;7.07;;;;;;;1.75;83.02;100367.69;5091673;28;20489;-68
2021/11/29 09:26:11;;;;;;;14.15;6.45;;;;;;;1.91;82.41;100373.53;5089209;28;20044;-68
2021/11/29 09:28:39;;;;;;;14.00;7.00;;;;;;;1.97;82.48;100380.13;5095774;28;20602;-68
2021/11/29 09:31:06;;;;;;;14.05;7.13;;;;;;;2.00;82.57;100382.53;5093914;28;20048;-68
2021/11/29 09:33:34;;;;;;;19.98;6.88;;;;;;;2.00;82.69;100390.38;5078124;28;20131;-68
2021/11/29 09:36:02;;;;;;;13.27;6.45;;;;;;;2.00;83.06;100387.75;5086040;28;20037;-68
2021/11/29 09:38:29;;;;;;;16.67;7.50;;;;;;;2.01;83.20;100389.41;5092650;28;20036;-68
2021/11/29 09:40:56;;;;;;;16.85;7.40;;;;;;;1.94;84.05;100382.94;5090198;28;20052;-67
2021/11/29 09:43:23;;;;;;;19.92;7.13;;;;;;;1.98;83.26;100391.41;5073053;28;20089;-68
2021/11/29 09:45:51;;;;;;;15.30;6.20;;;;;;;2.14;83.41;100391.19;5092670;28;20041;-67
2021/11/29 09:48:19;;;;;;;13.57;6.82;;;;;;;2.10;83.45;100388.78;5089885;28;20119;-68
2021/11/29 09:50:54;;;;;;;16.75;7.15;;;;;;;2.27;83.29;100399.81;5094070;28;20055;-68
2021/11/29 09:53:24;;;;;;;14.70;7.10;;;;;;;2.43;82.26;100396.97;5086997;28;20074;-68
2021/11/29 09:55:52;;;;;;;18.90;6.47;;;;;;;2.42;82.73;100393.50;5076586;28;20067;-68
2021/11/29 09:58:19;;;;;;;17.23;7.55;;;;;;;2.18;83.19;100393.44;5087974;28;20165;-68
2021/11/29 10:00:49;;;;;;;16.63;6.85;;;;;;;2.35;83.29;100404.50;5090654;28;20514;-68
2021/11/29 10:03:18;;;;;;;22.58;7.10;;;;;;;2.24;83.73;100393.03;5068768;28;20139;-68
2021/11/29 10:05:45;;;;;;;16.42;6.82;;;;;;;2.29;83.39;100398.78;5091440;28;20508;-68
2021/11/29 10:08:19;;;;;;;18.83;8.20;;;;;;;2.28;84.50;100401.50;5089665;28;20048;-68
2021/11/29 10:10:48;;;;;;;18.23;9.10;;;;;;;2.53;84.12;100402.34;5090350;28;20076;-68
2021/11/29 10:13:15;;;;;;;25.85;12.95;;;;;;;2.44;84.13;100414.34;5095878;28;20040;-68
2021/11/29 10:15:42;;;;;;;34.70;18.33;;;;;;;2.56;84.37;100405.59;5096835;28;20122;-68
2021/11/29 10:18:20;;;;;;;37.10;20.98;;;;;;;2.73;84.10;100403.53;5095816;28;20047;-69
2021/11/29 10:20:59;;;;;;;30.55;18.85;;;;;;;2.85;82.50;100389.53;5087283;28;20044;-68
2021/11/29 10:23:46;;;;;;;23.67;11.38;;;;;;;2.65;84.61;100404.94;5076340;28;20074;-69
2021/11/29 10:28:57;;;;;;;20.15;8.02;;;;;;;2.72;85.18;100410.56;5114456;27;20399;-69
2021/11/29 10:31:29;;;;;;;18.85;7.63;;;;;;;2.75;85.00;100412.97;5089939;28;20458;-69
2021/11/29 10:34:00;;;;;;;24.15;8.23;;;;;;;2.74;84.95;100423.56;5089627;28;20056;-69
2021/11/29 10:36:32;;;;;;;21.35;8.30;;;;;;;2.75;85.31;100418.22;5101989;28;20396;-69
2021/11/29 10:39:05;;;;;;;20.63;7.38;;;;;;;2.85;85.89;100428.84;5082679;28;20118;-69
2021/11/29 10:41:35;;;;;;;22.98;7.82;;;;;;;2.89;85.81;100422.44;5099249;28;20072;-69
2021/11/29 10:44:06;;;;;;;22.48;8.07;;;;;;;2.79;84.98;100424.88;5102885;28;20044;-69
2021/11/29 10:46:36;;;;;;;16.83;7.55;;;;;;;2.82;85.41;100422.06;5072597;28;20064;-69
2021/11/29 10:49:07;;;;;;;15.27;6.72;;;;;;;2.95;85.56;100424.63;5106972;27;20052;-69
2021/11/29 10:51:37;;;;;;;21.35;7.65;;;;;;;3.13;84.54;100427.66;5086434;28;20047;-69
2021/11/29 10:54:07;;;;;;;17.58;7.65;;;;;;;2.98;84.54;100429.59;5090375;28;20044;-69
2021/11/29 10:56:37;;;;;;;17.35;7.28;;;;;;;3.03;85.32;100430.13;5089747;28;20059;-69
2021/11/29 10:59:07;;;;;;;16.42;8.00;;;;;;;3.02;86.28;100440.69;5110091;28;20044;-69
2021/11/29 11:01:39;;;;;;;23.40;8.15;;;;;;;2.94;85.19;100438.66;5109044;28;20040;-69
2021/11/29 11:04:11;;;;;;;17.27;7.78;;;;;;;3.00;85.51;100440.84;5082082;28;20082;-69
2021/11/29 11:06:43;;;;;;;13.88;7.00;;;;;;;2.98;85.60;100440.09;5095687;28;20037;-69
2021/11/29 11:09:21;;;;;;;20.30;7.10;;;;;;;3.40;84.16;100447.50;5089176;28;20059;-69
2021/11/29 11:11:53;;;;;;;20.50;7.25;;;;;;;3.21;85.05;100448.06;5097180;27;20052;-70
2021/11/29 11:14:31;;;;;;;17.88;7.05;;;;;;;3.32;85.52;100458.59;5084977;28;20059;-67
2021/11/29 11:17:10;;;;;;;15.00;6.70;;;;;;;3.59;83.64;100447.81;5088284;28;20035;-67
2021/11/29 11:19:41;;;;;;;17.30;6.93;;;;;;;3.57;84.64;100454.97;5091174;28;20048;-70
2021/11/29 11:22:29;;;;;;;19.63;6.35;;;;;;;3.68;83.81;100451.53;5096885;28;20048;-69
2021/11/29 11:25:08;;;;;;;15.85;6.78;;;;;;;3.77;84.16;100458.69;5083965;28;20063;-69
2021/11/29 11:27:41;;;;;;;17.90;6.78;;;;;;;3.67;83.95;100454.25;5084386;28;20580;-70
2021/11/29 11:32:48;;;;;;;12.45;5.65;;;;;;;3.95;84.37;100464.34;5080609;27;20131;-69
2021/11/29 11:35:18;;;;;;;15.18;5.80;;;;;;;3.84;83.84;100462.53;5075001;28;20072;-69